createdAt,value
2016-10-05T00:00:07.904Z,94.39
2016-10-05T00:01:07.553Z,94.50
2016-10-05T00:02:08.196Z,93.26
2016-10-05T00:03:07.882Z,93.53
2016-10-05T00:04:07.594Z,94.02
2016-10-05T00:05:08.232Z,93.73
2016-10-05T00:06:07.837Z,94.03
2016-10-05T00:07:07.490Z,94.09
2016-10-05T00:08:08.175Z,94.29
2016-10-05T00:09:07.946Z,93.88
2016-10-05T00:10:07.490Z,93.73
2016-10-05T00:11:08.128Z,92.98
2016-10-05T00:12:07.753Z,93.15
2016-10-05T00:13:07.462Z,94.78
2016-10-05T00:14:08.123Z,95.05
2016-10-05T00:15:07.719Z,95.22
2016-10-05T00:16:07.399Z,94.10
2016-10-05T00:17:08.115Z,93.88
2016-10-05T00:18:07.836Z,94.19
2016-10-05T00:19:07.538Z,94.09
2016-10-05T00:20:08.183Z,94.27
2016-10-05T00:21:07.834Z,94.43
2016-10-05T00:22:07.489Z,94.56
2016-10-05T00:23:08.175Z,94.90
2016-10-05T00:24:07.869Z,94.24
2016-10-05T00:25:07.464Z,94.22
2016-10-05T00:26:08.092Z,94.82
2016-10-05T00:27:07.759Z,93.71
2016-10-05T00:28:07.470Z,94.52
2016-10-05T00:29:08.080Z,94.51
2016-10-05T00:30:07.694Z,94.40
2016-10-05T00:31:07.433Z,94.22
2016-10-05T00:32:08.045Z,93.71
2016-10-05T00:33:07.821Z,93.48
2016-10-05T00:34:08.384Z,92.98
2016-10-05T00:35:07.978Z,93.72
2016-10-05T00:36:07.645Z,93.74
2016-10-05T00:37:08.318Z,93.39
2016-10-05T00:38:07.980Z,93.40
2016-10-05T00:39:07.664Z,94.19
2016-10-05T00:40:08.260Z,94.01
2016-10-05T00:41:08.045Z,94.76
2016-10-05T00:42:07.680Z,93.73
2016-10-05T00:43:08.330Z,92.90
2016-10-05T00:44:07.973Z,92.97
2016-10-05T00:45:07.580Z,93.19
2016-10-05T00:46:08.164Z,93.09
2016-10-05T00:47:07.870Z,92.95
2016-10-05T00:48:07.505Z,93.02
2016-10-05T00:49:08.145Z,92.36
2016-10-05T00:50:07.787Z,92.14
2016-10-05T00:51:07.477Z,92.58
2016-10-05T00:52:08.014Z,92.45
2016-10-05T00:53:07.780Z,92.27
2016-10-05T00:54:08.379Z,92.24
2016-10-05T00:55:08.004Z,91.74
2016-10-05T00:56:07.694Z,91.24
2016-10-05T00:57:08.289Z,92.34
2016-10-05T00:58:07.991Z,92.16
2016-10-05T00:59:07.621Z,93.00
2016-10-05T01:00:08.221Z,93.21
2016-10-05T01:01:07.876Z,92.79
2016-10-05T01:02:07.509Z,93.40
2016-10-05T01:03:08.234Z,93.05
2016-10-05T01:04:07.865Z,93.06
2016-10-05T01:05:07.529Z,92.68
2016-10-05T01:06:08.085Z,92.78
2016-10-05T01:07:07.765Z,92.49
2016-10-05T01:08:07.375Z,92.57
2016-10-05T01:09:08.128Z,93.08
2016-10-05T01:10:07.757Z,92.48
2016-10-05T01:11:07.391Z,92.88
2016-10-05T01:12:08.043Z,92.57
2016-10-05T01:13:08.037Z,93.09
2016-10-05T01:14:08.402Z,92.46
2016-10-05T01:15:07.974Z,92.88
2016-10-05T01:16:07.656Z,92.49
2016-10-05T01:17:08.319Z,93.02
2016-10-05T01:18:08.076Z,92.93
2016-10-05T01:19:07.766Z,91.81
2016-10-05T01:20:08.333Z,92.35
2016-10-05T01:21:08.040Z,92.31
2016-10-05T01:22:07.684Z,91.95
2016-10-05T01:23:08.321Z,92.37
2016-10-05T01:24:08.060Z,92.83
2016-10-05T01:25:07.666Z,94.02
2016-10-05T01:26:08.292Z,93.45
2016-10-05T01:27:07.922Z,93.68
2016-10-05T01:28:07.587Z,93.62
2016-10-05T01:29:08.483Z,93.28
2016-10-05T01:30:07.850Z,92.70
2016-10-05T01:31:07.505Z,92.22
2016-10-05T01:32:08.185Z,92.32
2016-10-05T01:33:07.829Z,92.87
2016-10-05T01:34:07.475Z,93.26
2016-10-05T01:35:08.158Z,92.39
2016-10-05T01:36:07.784Z,92.54
2016-10-05T01:37:07.405Z,93.25
2016-10-05T01:38:08.042Z,92.46
2016-10-05T01:39:07.680Z,91.88
2016-10-05T01:40:08.395Z,92.31
2016-10-05T01:41:07.977Z,91.99
2016-10-05T01:42:07.593Z,91.99
2016-10-05T01:43:08.343Z,92.43
2016-10-05T01:44:07.956Z,93.23
2016-10-05T01:45:07.576Z,92.95
2016-10-05T01:46:08.222Z,92.82
2016-10-05T01:47:07.866Z,92.42
2016-10-05T01:48:07.512Z,91.89
2016-10-05T01:49:08.150Z,92.40
2016-10-05T01:50:07.857Z,92.28
2016-10-05T01:51:07.424Z,92.24
2016-10-05T01:52:08.046Z,92.77
2016-10-05T01:53:07.684Z,91.73
2016-10-05T01:54:08.339Z,91.03
2016-10-05T01:55:08.444Z,90.70
2016-10-05T01:56:07.608Z,91.80
2016-10-05T01:57:08.226Z,92.81
2016-10-05T01:58:07.930Z,91.88
2016-10-05T01:59:07.557Z,91.87
2016-10-05T02:00:08.309Z,92.05
2016-10-05T02:01:07.874Z,91.93
2016-10-05T02:02:07.532Z,91.64
2016-10-05T02:03:08.202Z,92.58
2016-10-05T02:04:07.815Z,92.01
2016-10-05T02:05:07.751Z,91.50
2016-10-05T02:06:08.127Z,91.02
2016-10-05T02:07:07.760Z,90.61
2016-10-05T02:08:07.415Z,91.51
2016-10-05T02:09:08.074Z,91.08
2016-10-05T02:10:07.764Z,91.33
2016-10-05T02:11:07.386Z,91.96
2016-10-05T02:12:08.051Z,91.76
2016-10-05T02:13:07.747Z,91.11
2016-10-05T02:14:08.380Z,91.25
2016-10-05T02:15:08.055Z,90.68
2016-10-05T02:16:07.645Z,90.39
2016-10-05T02:17:08.354Z,91.21
2016-10-05T02:18:08.067Z,90.64
2016-10-05T02:19:07.684Z,91.54
2016-10-05T02:20:08.392Z,91.98
2016-10-05T02:21:07.985Z,91.32
2016-10-05T02:22:07.636Z,90.46
2016-10-05T02:23:08.293Z,90.73
2016-10-05T02:24:07.916Z,90.69
2016-10-05T02:25:07.620Z,91.21
2016-10-05T02:26:08.228Z,91.46
2016-10-05T02:27:07.866Z,91.26
2016-10-05T02:28:07.561Z,91.33
2016-10-05T02:29:08.217Z,90.92
2016-10-05T02:30:07.866Z,90.70
2016-10-05T02:31:07.476Z,90.54
2016-10-05T02:32:08.125Z,90.36
2016-10-05T02:33:07.774Z,90.33
2016-10-05T02:34:07.400Z,90.53
2016-10-05T02:35:08.070Z,91.23
2016-10-05T02:36:07.672Z,89.84
2016-10-05T02:37:08.296Z,91.86
2016-10-05T02:38:07.917Z,91.35
2016-10-05T02:39:07.575Z,89.95
2016-10-05T02:40:08.338Z,90.75
2016-10-05T02:41:07.948Z,90.89
2016-10-05T02:42:07.600Z,91.25
2016-10-05T02:43:08.269Z,91.95
2016-10-05T02:44:07.857Z,91.33
2016-10-05T02:45:07.536Z,90.26
2016-10-05T02:46:08.129Z,90.50
2016-10-05T02:47:07.778Z,90.50
2016-10-05T02:48:07.406Z,90.27
2016-10-05T02:49:08.092Z,90.68
2016-10-05T02:50:07.761Z,90.68
2016-10-05T02:51:08.384Z,90.98
2016-10-05T02:52:07.978Z,90.18
2016-10-05T02:53:07.662Z,90.24
2016-10-05T02:54:08.303Z,90.65
2016-10-05T02:55:07.975Z,91.46
2016-10-05T02:56:07.607Z,92.50
2016-10-05T02:57:08.226Z,92.09
2016-10-05T02:58:08.358Z,91.96
2016-10-05T02:59:07.553Z,90.77
2016-10-05T03:00:08.197Z,92.05
2016-10-05T03:01:07.805Z,92.27
2016-10-05T03:02:07.475Z,90.88
2016-10-05T03:03:08.114Z,90.96
2016-10-05T03:04:07.796Z,90.66
2016-10-05T03:05:07.465Z,90.85
2016-10-05T03:06:08.051Z,90.59
2016-10-05T03:07:07.713Z,90.90
2016-10-05T03:08:08.381Z,90.87
2016-10-05T03:09:08.028Z,90.94
2016-10-05T03:10:07.681Z,91.23
2016-10-05T03:11:08.272Z,91.69
2016-10-05T03:12:07.894Z,90.69
2016-10-05T03:13:07.614Z,91.05
2016-10-05T03:14:08.226Z,90.82
2016-10-05T03:15:07.889Z,90.84
2016-10-05T03:16:07.460Z,92.89
2016-10-05T03:17:08.166Z,91.73
2016-10-05T03:18:07.927Z,91.17
2016-10-05T03:19:07.567Z,91.67
2016-10-05T03:20:08.260Z,92.00
2016-10-05T03:21:07.844Z,91.07
2016-10-05T03:22:07.512Z,90.55
2016-10-05T03:23:08.185Z,91.04
2016-10-05T03:24:07.821Z,90.23
2016-10-05T03:25:07.471Z,90.63
2016-10-05T03:26:08.055Z,91.10
2016-10-05T03:27:07.686Z,92.12
2016-10-05T03:28:08.408Z,91.86
2016-10-05T03:29:08.011Z,91.26
2016-10-05T03:30:07.722Z,91.13
2016-10-05T03:31:08.293Z,91.32
2016-10-05T03:32:07.955Z,91.92
2016-10-05T03:33:07.610Z,92.35
2016-10-05T03:34:08.267Z,92.13
2016-10-05T03:35:07.947Z,92.33
2016-10-05T03:36:07.578Z,91.85
2016-10-05T03:37:08.191Z,92.09
2016-10-05T03:38:07.847Z,91.93
2016-10-05T03:39:07.453Z,91.69
2016-10-05T03:40:08.155Z,92.35
2016-10-05T03:41:07.676Z,92.02
2016-10-05T03:42:08.369Z,92.25
2016-10-05T03:43:08.066Z,92.46
2016-10-05T03:44:07.654Z,92.73
2016-10-05T03:45:08.349Z,92.37
2016-10-05T03:46:07.933Z,92.17
2016-10-05T03:47:07.570Z,92.23
2016-10-05T03:48:08.207Z,91.93
2016-10-05T03:49:07.825Z,92.01
2016-10-05T03:50:07.542Z,92.70
2016-10-05T03:51:08.134Z,92.55
2016-10-05T03:52:07.754Z,92.36
2016-10-05T03:53:07.411Z,92.25
2016-10-05T03:54:08.067Z,91.87
2016-10-05T03:55:07.755Z,92.14
2016-10-05T03:56:08.626Z,92.33
2016-10-05T03:57:08.274Z,93.52
2016-10-05T03:58:07.991Z,94.08
2016-10-05T03:59:07.580Z,93.40
2016-10-05T04:00:08.271Z,92.97
2016-10-05T04:01:07.900Z,92.83
2016-10-05T04:02:07.582Z,92.80
2016-10-05T04:03:08.217Z,94.60
2016-10-05T04:04:07.866Z,93.87
2016-10-05T04:05:07.555Z,93.13
2016-10-05T04:06:08.154Z,92.98
2016-10-05T04:07:07.795Z,91.99
2016-10-05T04:08:07.445Z,91.75
2016-10-05T04:09:08.102Z,91.95
2016-10-05T04:10:07.803Z,91.89
2016-10-05T04:11:08.351Z,92.42
2016-10-05T04:12:08.012Z,92.68
2016-10-05T04:13:07.673Z,92.93
2016-10-05T04:14:08.290Z,92.17
2016-10-05T04:15:07.988Z,91.66
2016-10-05T04:16:07.631Z,91.62
2016-10-05T04:17:08.263Z,91.99
2016-10-05T04:18:08.007Z,92.38
2016-10-05T04:19:07.659Z,94.25
2016-10-05T04:20:08.320Z,93.63
2016-10-05T04:21:07.931Z,93.19
2016-10-05T04:22:07.563Z,92.84
2016-10-05T04:23:08.208Z,92.78
2016-10-05T04:24:07.855Z,92.73
2016-10-05T04:25:10.154Z,92.62
2016-10-05T04:26:07.906Z,91.90
2016-10-05T04:27:07.533Z,92.39
2016-10-05T04:28:08.253Z,92.37
2016-10-05T04:29:07.850Z,92.33
2016-10-05T04:30:07.495Z,91.83
2016-10-05T04:31:08.175Z,91.51
2016-10-05T04:32:07.756Z,92.91
2016-10-05T04:33:07.384Z,93.21
2016-10-05T04:34:08.040Z,92.73
2016-10-05T04:35:07.741Z,91.92
2016-10-05T04:36:08.408Z,92.40
2016-10-05T04:37:08.006Z,92.39
2016-10-05T04:38:07.669Z,92.53
2016-10-05T04:39:08.339Z,92.21
2016-10-05T04:40:09.505Z,92.72
2016-10-05T04:41:07.663Z,92.19
2016-10-05T04:42:08.268Z,91.60
2016-10-05T04:43:07.944Z,91.34
2016-10-05T04:44:07.631Z,91.76
2016-10-05T04:45:08.179Z,91.87
2016-10-05T04:46:07.891Z,92.23
2016-10-05T04:47:07.492Z,92.41
2016-10-05T04:48:08.154Z,92.54
2016-10-05T04:49:07.784Z,92.64
2016-10-05T04:50:07.450Z,93.80
2016-10-05T04:51:08.155Z,92.73
2016-10-05T04:52:07.778Z,92.67
2016-10-05T04:53:07.381Z,92.11
2016-10-05T04:54:08.020Z,92.26
2016-10-05T04:55:07.729Z,92.81
2016-10-05T04:56:08.401Z,91.92
2016-10-05T04:57:07.972Z,92.17
2016-10-05T04:58:07.660Z,93.27
2016-10-05T04:59:08.256Z,95.32
2016-10-05T05:00:07.922Z,93.63
2016-10-05T05:01:07.620Z,92.71
2016-10-05T05:02:08.210Z,92.32
2016-10-05T05:03:07.903Z,92.76
2016-10-05T05:04:07.498Z,92.77
2016-10-05T05:05:08.107Z,92.66
2016-10-05T05:06:07.830Z,92.37
2016-10-05T05:07:07.416Z,92.98
2016-10-05T05:08:08.026Z,92.90
2016-10-05T05:09:07.679Z,92.29
2016-10-05T05:10:08.318Z,92.36
2016-10-05T05:11:08.019Z,92.19
2016-10-05T05:12:07.610Z,92.13
2016-10-05T05:13:08.315Z,92.77
2016-10-05T05:14:07.876Z,92.74
2016-10-05T05:15:07.530Z,92.01
2016-10-05T05:16:08.212Z,91.73
2016-10-05T05:17:07.973Z,91.40
2016-10-05T05:18:07.649Z,91.61
2016-10-05T05:19:08.317Z,92.34
2016-10-05T05:20:07.936Z,92.68
2016-10-05T05:21:07.693Z,92.67
2016-10-05T05:22:08.297Z,94.39
2016-10-05T05:23:07.963Z,93.60
2016-10-05T05:24:07.593Z,91.86
2016-10-05T05:25:08.203Z,92.27
2016-10-05T05:26:07.871Z,91.70
2016-10-05T05:27:07.447Z,91.90
2016-10-05T05:28:08.164Z,92.79
2016-10-05T05:29:07.721Z,93.05
2016-10-05T05:30:07.369Z,92.78
2016-10-05T05:31:08.091Z,92.41
2016-10-05T05:32:07.701Z,91.80
2016-10-05T05:33:08.281Z,91.99
2016-10-05T05:34:07.961Z,92.57
2016-10-05T05:35:07.584Z,92.26
2016-10-05T05:36:08.277Z,92.22
2016-10-05T05:37:07.849Z,91.31
2016-10-05T05:38:07.538Z,91.46
2016-10-05T05:39:08.180Z,91.02
2016-10-05T05:40:07.790Z,91.00
2016-10-05T05:41:07.497Z,91.59
2016-10-05T05:42:08.108Z,91.70
2016-10-05T05:43:07.848Z,91.28
2016-10-05T05:44:07.378Z,91.40
2016-10-05T05:45:08.030Z,91.66
2016-10-05T05:46:07.730Z,91.50
2016-10-05T05:47:08.339Z,91.71
2016-10-05T05:48:08.019Z,90.87
2016-10-05T05:49:07.715Z,91.31
2016-10-05T05:50:08.346Z,91.45
2016-10-05T05:51:08.011Z,91.11
2016-10-05T05:52:07.663Z,90.68
2016-10-05T05:53:08.269Z,91.00
2016-10-05T05:54:07.995Z,90.96
2016-10-05T05:55:07.576Z,91.64
2016-10-05T05:56:08.259Z,91.95
2016-10-05T05:57:07.882Z,92.43
2016-10-05T05:58:07.590Z,91.59
2016-10-05T05:59:08.325Z,92.23
2016-10-05T06:00:07.909Z,91.66
2016-10-05T06:01:07.630Z,92.07
2016-10-05T06:02:08.260Z,91.42
2016-10-05T06:03:07.924Z,91.44
2016-10-05T06:04:07.561Z,92.02
2016-10-05T06:05:08.222Z,93.08
2016-10-05T06:06:07.900Z,92.47
2016-10-05T06:07:07.470Z,92.53
2016-10-05T06:08:08.085Z,91.63
2016-10-05T06:09:07.702Z,91.46
2016-10-05T06:10:07.392Z,91.56
2016-10-05T06:11:08.093Z,92.38
2016-10-05T06:12:07.683Z,92.60
2016-10-05T06:13:08.305Z,91.75
2016-10-05T06:14:07.992Z,91.78
2016-10-05T06:15:07.619Z,91.79
2016-10-05T06:16:08.292Z,94.56
2016-10-05T06:17:07.994Z,92.04
2016-10-05T06:18:07.752Z,92.14
2016-10-05T06:19:07.349Z,92.19
2016-10-05T06:20:08.091Z,92.74
2016-10-05T06:21:07.744Z,91.82
2016-10-05T06:22:08.358Z,91.72
2016-10-05T06:23:07.993Z,91.60
2016-10-05T06:24:07.643Z,91.54
2016-10-05T06:25:08.318Z,92.19
2016-10-05T06:26:07.976Z,93.22
2016-10-05T06:27:07.613Z,91.69
2016-10-05T06:28:08.523Z,91.88
2016-10-05T06:29:07.933Z,91.77
2016-10-05T06:30:07.616Z,91.94
2016-10-05T06:31:08.323Z,90.88
2016-10-05T06:32:07.953Z,91.44
2016-10-05T06:33:07.613Z,91.91
2016-10-05T06:34:08.283Z,90.85
2016-10-05T06:35:07.879Z,90.88
2016-10-05T06:36:07.610Z,90.48
2016-10-05T06:37:08.378Z,91.03
2016-10-05T06:38:07.843Z,91.17
2016-10-05T06:39:07.548Z,90.32
2016-10-05T06:40:08.183Z,89.78
2016-10-05T06:41:07.844Z,88.96
2016-10-05T06:42:07.443Z,91.14
2016-10-05T06:43:08.156Z,89.69
2016-10-05T06:44:07.750Z,89.45
2016-10-05T06:45:12.920Z,90.91
2016-10-05T06:46:08.087Z,90.19
2016-10-05T06:47:07.719Z,90.24
2016-10-05T06:48:08.331Z,89.56
2016-10-05T06:49:07.991Z,89.37
2016-10-05T06:50:07.634Z,89.29
2016-10-05T06:51:08.356Z,89.02
2016-10-05T06:52:07.962Z,89.51
2016-10-05T06:53:07.589Z,89.71
2016-10-05T06:54:08.230Z,89.48
2016-10-05T06:55:07.883Z,89.48
2016-10-05T06:56:07.585Z,88.45
2016-10-05T06:57:08.191Z,88.53
2016-10-05T06:58:07.825Z,88.49
2016-10-05T06:59:07.536Z,88.80
2016-10-05T07:00:08.160Z,89.32
2016-10-05T07:01:07.836Z,89.67
2016-10-05T07:02:07.474Z,88.18
2016-10-05T07:03:08.075Z,88.13
2016-10-05T07:04:07.715Z,88.54
2016-10-05T07:05:08.329Z,88.70
2016-10-05T07:06:08.110Z,88.61
2016-10-05T07:07:07.666Z,86.70
2016-10-05T07:08:08.308Z,88.06
2016-10-05T07:09:08.003Z,87.53
2016-10-05T07:10:07.653Z,88.06
2016-10-05T07:11:08.339Z,88.34
2016-10-05T07:12:07.945Z,87.09
2016-10-05T07:13:07.613Z,87.62
2016-10-05T07:14:08.348Z,87.31
2016-10-05T07:15:07.965Z,86.02
2016-10-05T07:16:07.634Z,86.59
2016-10-05T07:17:08.362Z,87.17
2016-10-05T07:18:08.168Z,86.34
2016-10-05T07:19:07.810Z,85.95
2016-10-05T07:20:07.415Z,86.40
2016-10-05T07:21:08.122Z,87.16
2016-10-05T07:22:07.701Z,86.87
2016-10-05T07:23:08.343Z,86.29
2016-10-05T07:24:08.016Z,85.91
2016-10-05T07:25:07.658Z,86.42
2016-10-05T07:26:08.333Z,86.74
2016-10-05T07:27:07.953Z,86.20
2016-10-05T07:28:07.653Z,85.73
2016-10-05T07:29:13.855Z,86.15
2016-10-05T07:30:08.007Z,85.46
2016-10-05T07:31:07.590Z,85.72
2016-10-05T07:32:08.247Z,85.51
2016-10-05T07:33:07.859Z,86.33
2016-10-05T07:34:07.513Z,85.46
2016-10-05T07:35:08.187Z,86.17
2016-10-05T07:36:07.906Z,85.65
2016-10-05T07:37:07.522Z,86.61
2016-10-05T07:38:08.180Z,84.84
2016-10-05T07:39:07.814Z,85.52
2016-10-05T07:40:07.470Z,85.49
2016-10-05T07:41:08.167Z,86.06
2016-10-05T07:42:07.786Z,85.59
2016-10-05T07:43:07.405Z,83.19
2016-10-05T07:44:08.130Z,83.39
2016-10-05T07:45:07.703Z,84.28
2016-10-05T07:46:08.368Z,84.60
2016-10-05T07:47:08.012Z,84.31
2016-10-05T07:48:07.678Z,85.78
2016-10-05T07:49:08.337Z,85.37
2016-10-05T07:50:07.997Z,86.11
2016-10-05T07:51:07.713Z,85.95
2016-10-05T07:52:08.322Z,85.65
2016-10-05T07:53:08.008Z,85.43
2016-10-05T07:54:07.655Z,85.84
2016-10-05T07:55:08.318Z,85.49
2016-10-05T07:56:08.069Z,85.07
2016-10-05T07:57:07.628Z,84.69
2016-10-05T07:58:08.299Z,85.63
2016-10-05T07:59:08.021Z,83.69
2016-10-05T08:00:07.617Z,84.52
2016-10-05T08:01:08.322Z,83.81
2016-10-05T08:02:07.907Z,84.63
2016-10-05T08:03:07.855Z,84.51
2016-10-05T08:04:08.363Z,84.76
2016-10-05T08:05:07.895Z,85.63
2016-10-05T08:06:07.537Z,84.94
2016-10-05T08:07:08.196Z,84.98
2016-10-05T08:08:07.807Z,84.33
2016-10-05T08:09:07.517Z,84.52
2016-10-05T08:10:08.128Z,83.23
2016-10-05T08:11:07.845Z,84.31
2016-10-05T08:12:07.496Z,83.53
2016-10-05T08:13:08.077Z,83.11
2016-10-05T08:14:07.748Z,85.72
2016-10-05T08:15:08.338Z,84.53
2016-10-05T08:16:08.061Z,83.29
2016-10-05T08:17:07.710Z,83.92
2016-10-05T08:18:07.418Z,83.33
2016-10-05T08:19:08.068Z,84.50
2016-10-05T08:20:07.717Z,85.46
2016-10-05T08:21:08.419Z,85.86
2016-10-05T08:22:07.997Z,85.14
2016-10-05T08:23:07.637Z,85.04
2016-10-05T08:24:08.313Z,85.95
2016-10-05T08:25:07.965Z,85.23
2016-10-05T08:26:07.657Z,83.68
2016-10-05T08:27:08.328Z,83.01
2016-10-05T08:28:07.925Z,84.39
2016-10-05T08:29:07.619Z,84.85
2016-10-05T08:30:08.244Z,83.86
2016-10-05T08:31:07.906Z,83.35
2016-10-05T08:32:07.589Z,82.67
2016-10-05T08:33:08.168Z,81.20
2016-10-05T08:34:07.832Z,82.62
2016-10-05T08:35:07.468Z,82.46
2016-10-05T08:36:08.175Z,83.16
2016-10-05T08:37:07.811Z,82.88
2016-10-05T08:38:07.481Z,82.19
2016-10-05T08:39:08.133Z,81.83
2016-10-05T08:40:07.789Z,81.25
2016-10-05T08:41:07.478Z,81.83
2016-10-05T08:42:08.184Z,80.36
2016-10-05T08:43:07.775Z,81.03
2016-10-05T08:44:07.640Z,79.50
2016-10-05T08:45:08.129Z,79.92
2016-10-05T08:46:07.750Z,79.66
2016-10-05T08:47:07.448Z,80.28
2016-10-05T08:48:08.063Z,78.89
2016-10-05T08:49:07.698Z,79.42
2016-10-05T08:50:08.347Z,79.42
2016-10-05T08:51:07.984Z,80.28
2016-10-05T08:52:07.680Z,79.68
2016-10-05T08:53:08.229Z,79.15
2016-10-05T08:54:08.017Z,79.99
2016-10-05T08:55:07.549Z,79.40
2016-10-05T08:56:08.209Z,79.86
2016-10-05T08:57:07.896Z,78.97
2016-10-05T08:58:07.508Z,78.91
2016-10-05T08:59:08.240Z,79.55
2016-10-05T09:00:07.924Z,79.74
2016-10-05T09:01:07.467Z,78.95
2016-10-05T09:02:08.168Z,77.82
2016-10-05T09:03:07.747Z,77.40
2016-10-05T09:04:07.387Z,77.16
2016-10-05T09:05:08.014Z,78.72
2016-10-05T09:06:07.672Z,79.09
2016-10-05T09:07:08.364Z,76.98
2016-10-05T09:08:07.987Z,77.37
2016-10-05T09:09:07.631Z,76.55
2016-10-05T09:10:08.284Z,76.19
2016-10-05T09:11:07.935Z,75.18
2016-10-05T09:12:07.697Z,74.40
2016-10-05T09:13:08.272Z,74.91
2016-10-05T09:14:07.950Z,72.46
2016-10-05T09:15:07.592Z,74.41
2016-10-05T09:16:08.264Z,75.48
2016-10-05T09:17:08.038Z,75.80
2016-10-05T09:18:07.754Z,76.49
2016-10-05T09:19:08.345Z,75.20
2016-10-05T09:20:08.017Z,72.78
2016-10-05T09:21:07.695Z,72.28
2016-10-05T09:22:08.397Z,74.64
2016-10-05T09:23:08.005Z,74.28
2016-10-05T09:24:07.617Z,75.03
2016-10-05T09:25:08.316Z,75.34
2016-10-05T09:26:07.959Z,75.18
2016-10-05T09:27:07.687Z,73.67
2016-10-05T09:28:08.253Z,73.26
2016-10-05T09:29:07.973Z,74.14
2016-10-05T09:30:07.587Z,73.06
2016-10-05T09:31:08.240Z,73.76
2016-10-05T09:32:07.990Z,72.23
2016-10-05T09:33:07.548Z,72.36
2016-10-05T09:34:08.227Z,73.18
2016-10-05T09:35:07.878Z,70.83
2016-10-05T09:36:07.526Z,71.03
2016-10-05T09:37:08.223Z,70.87
2016-10-05T09:38:07.840Z,72.73
2016-10-05T09:39:07.468Z,68.72
2016-10-05T09:40:08.108Z,69.88
2016-10-05T09:41:07.769Z,70.72
2016-10-05T09:42:07.456Z,69.39
2016-10-05T09:43:08.058Z,70.89
2016-10-05T09:44:07.797Z,69.29
2016-10-05T09:45:07.355Z,68.73
2016-10-05T09:46:08.072Z,69.21
2016-10-05T09:47:07.747Z,68.37
2016-10-05T09:48:07.372Z,68.18
2016-10-05T09:49:08.027Z,69.48
2016-10-05T09:50:07.773Z,69.09
2016-10-05T09:51:08.307Z,65.95
2016-10-05T09:52:08.032Z,66.26
2016-10-05T09:53:07.636Z,66.44
2016-10-05T09:54:08.307Z,64.09
2016-10-05T09:55:07.906Z,64.04
2016-10-05T09:56:07.601Z,63.84
2016-10-05T09:57:08.310Z,63.81
2016-10-05T09:58:07.955Z,65.45
2016-10-05T09:59:07.657Z,65.30
2016-10-05T10:00:08.260Z,67.25
2016-10-05T10:01:07.942Z,67.29
2016-10-05T10:02:07.657Z,66.69
2016-10-05T10:03:08.228Z,66.56
2016-10-05T10:04:07.971Z,67.77
2016-10-05T10:05:07.568Z,63.42
2016-10-05T10:06:08.251Z,63.61
2016-10-05T10:07:07.969Z,64.23
2016-10-05T10:08:07.557Z,62.69
2016-10-05T10:09:08.257Z,62.60
2016-10-05T10:10:07.868Z,63.54
2016-10-05T10:11:07.534Z,64.35
2016-10-05T10:12:08.218Z,63.91
2016-10-05T10:13:07.848Z,63.75
2016-10-05T10:14:07.536Z,64.29
2016-10-05T10:15:08.145Z,65.42
2016-10-05T10:16:07.778Z,65.96
2016-10-05T10:17:07.559Z,64.80
2016-10-05T10:18:08.197Z,63.35
2016-10-05T10:19:07.887Z,63.77
2016-10-05T10:20:07.570Z,63.73
2016-10-05T10:21:08.263Z,62.11
2016-10-05T10:22:07.944Z,62.44
2016-10-05T10:23:07.557Z,59.65
2016-10-05T10:24:08.185Z,62.17
2016-10-05T10:25:07.836Z,60.75
2016-10-05T10:26:07.503Z,60.60
2016-10-05T10:27:08.187Z,59.88
2016-10-05T10:28:07.810Z,61.43
2016-10-05T10:29:07.457Z,59.04
2016-10-05T10:30:08.106Z,59.52
2016-10-05T10:31:07.755Z,58.75
2016-10-05T10:32:07.466Z,58.53
2016-10-05T10:33:08.076Z,59.70
2016-10-05T10:34:07.684Z,59.31
2016-10-05T10:35:08.306Z,60.31
2016-10-05T10:36:07.985Z,59.26
2016-10-05T10:37:07.690Z,59.57
2016-10-05T10:38:08.244Z,56.37
2016-10-05T10:39:08.003Z,57.74
2016-10-05T10:40:07.618Z,56.91
2016-10-05T10:41:08.273Z,56.35
2016-10-05T10:42:08.012Z,58.30
2016-10-05T10:43:07.598Z,59.00
2016-10-05T10:44:08.306Z,58.24
2016-10-05T10:45:07.926Z,53.38
2016-10-05T10:46:07.549Z,55.01
2016-10-05T10:47:08.300Z,53.30
2016-10-05T10:48:07.895Z,50.86
2016-10-05T10:49:07.540Z,53.31
2016-10-05T10:50:08.206Z,55.66
2016-10-05T10:51:07.785Z,54.56
2016-10-05T10:52:07.463Z,55.18
2016-10-05T10:53:08.061Z,56.02
2016-10-05T10:54:07.685Z,54.64
2016-10-05T10:55:08.334Z,55.93
2016-10-05T10:56:08.009Z,56.21
2016-10-05T10:57:07.665Z,57.12
2016-10-05T10:58:08.322Z,56.10
2016-10-05T10:59:08.014Z,57.04
2016-10-05T11:00:07.630Z,57.85
2016-10-05T11:01:08.265Z,58.62
2016-10-05T11:02:07.985Z,56.74
2016-10-05T11:03:07.605Z,56.55
2016-10-05T11:04:08.276Z,54.72
2016-10-05T11:05:07.956Z,55.01
2016-10-05T11:06:07.623Z,55.24
2016-10-05T11:07:08.269Z,54.60
2016-10-05T11:08:07.913Z,54.04
2016-10-05T11:09:07.504Z,55.41
2016-10-05T11:10:08.148Z,54.86
2016-10-05T11:11:07.806Z,54.92
2016-10-05T11:12:07.457Z,55.06
2016-10-05T11:13:08.061Z,54.60
2016-10-05T11:14:07.757Z,54.80
2016-10-05T11:15:07.386Z,56.93
2016-10-05T11:16:08.054Z,53.42
2016-10-05T11:17:07.841Z,53.70
2016-10-05T11:18:07.509Z,54.32
2016-10-05T11:19:08.175Z,53.19
2016-10-05T11:20:07.945Z,53.35
2016-10-05T11:21:07.495Z,53.57
2016-10-05T11:22:08.195Z,54.69
2016-10-05T11:23:07.803Z,50.57
2016-10-05T11:24:07.416Z,52.11
2016-10-05T11:25:08.054Z,50.81
2016-10-05T11:26:07.727Z,51.47
2016-10-05T11:27:08.414Z,51.76
2016-10-05T11:28:07.964Z,50.32
2016-10-05T11:29:07.675Z,50.78
2016-10-05T11:30:08.271Z,52.09
2016-10-05T11:31:07.921Z,51.47
2016-10-05T11:32:07.622Z,53.34
2016-10-05T11:33:08.224Z,53.89
2016-10-05T11:34:07.913Z,53.77
2016-10-05T11:35:07.575Z,52.77
2016-10-05T11:36:08.264Z,53.58
2016-10-05T11:37:07.975Z,53.10
2016-10-05T11:38:07.565Z,54.05
2016-10-05T11:39:08.203Z,53.95
2016-10-05T11:40:07.857Z,52.41
2016-10-05T11:41:07.510Z,54.03
2016-10-05T11:42:08.199Z,55.86
2016-10-05T11:43:07.782Z,56.81
2016-10-05T11:44:07.533Z,55.07
2016-10-05T11:45:08.144Z,55.52
2016-10-05T11:46:07.882Z,52.41
2016-10-05T11:47:07.560Z,54.29
2016-10-05T11:48:08.153Z,53.68
2016-10-05T11:49:07.792Z,52.77
2016-10-05T11:50:07.441Z,52.34
2016-10-05T11:51:08.109Z,51.36
2016-10-05T11:52:07.782Z,50.83
2016-10-05T11:53:07.389Z,48.47
2016-10-05T11:54:08.039Z,48.03
2016-10-05T11:55:07.626Z,48.51
2016-10-05T11:56:08.351Z,48.32
2016-10-05T11:57:08.059Z,48.42
2016-10-05T11:58:07.617Z,50.17
2016-10-05T11:59:08.368Z,50.22
2016-10-05T12:00:08.033Z,50.42
2016-10-05T12:01:07.670Z,50.75
2016-10-05T12:02:08.350Z,52.17
2016-10-05T12:03:07.957Z,52.19
2016-10-05T12:04:07.632Z,50.51
2016-10-05T12:05:08.243Z,52.37
2016-10-05T12:06:07.891Z,49.43
2016-10-05T12:07:07.592Z,51.14
2016-10-05T12:08:08.249Z,52.14
2016-10-05T12:09:07.891Z,52.56
2016-10-05T12:10:07.523Z,51.80
2016-10-05T12:11:08.206Z,52.52
2016-10-05T12:12:08.029Z,52.44
2016-10-05T12:13:07.624Z,53.07
2016-10-05T12:14:13.858Z,52.63
2016-10-05T12:15:07.932Z,53.24
2016-10-05T12:16:07.556Z,50.92
2016-10-05T12:17:08.341Z,53.76
2016-10-05T12:18:08.045Z,54.23
2016-10-05T12:19:07.983Z,52.77
2016-10-05T12:20:08.381Z,53.29
2016-10-05T12:21:07.973Z,51.94
2016-10-05T12:22:07.694Z,52.36
2016-10-05T12:23:08.269Z,50.78
2016-10-05T12:24:07.911Z,54.13
2016-10-05T12:25:07.520Z,54.20
2016-10-05T12:26:08.193Z,53.49
2016-10-05T12:27:07.935Z,52.80
2016-10-05T12:28:07.485Z,55.28
2016-10-05T12:29:08.202Z,53.31
2016-10-05T12:30:07.814Z,52.85
2016-10-05T12:31:07.450Z,54.13
2016-10-05T12:32:08.170Z,54.38
2016-10-05T12:33:07.754Z,52.35
2016-10-05T12:34:07.390Z,51.92
2016-10-05T12:35:08.043Z,51.88
2016-10-05T12:36:07.682Z,54.35
2016-10-05T12:37:08.362Z,52.77
2016-10-05T12:38:08.002Z,51.81
2016-10-05T12:39:07.634Z,51.14
2016-10-05T12:40:08.282Z,50.81
2016-10-05T12:41:07.914Z,50.00
2016-10-05T12:42:07.618Z,48.80
2016-10-05T12:43:08.174Z,49.83
2016-10-05T12:44:07.881Z,48.28
2016-10-05T12:45:07.519Z,47.46
2016-10-05T12:46:08.163Z,49.83
2016-10-05T12:47:07.843Z,52.31
2016-10-05T12:48:07.463Z,51.25
2016-10-05T12:49:08.153Z,50.04
2016-10-05T12:50:07.753Z,51.07
2016-10-05T12:51:07.379Z,50.60
2016-10-05T12:52:08.073Z,49.47